Share

Hoskins, NE (68740)

10:24 PM CDT on April 24, 2014 (GMT -0500)
Woodland Park (KNENORFO5) Elev 1700 ft | 42.05 °N, 97.35 °W | Change Station

Current weather conditions updated 3 minutes ago

Clear
Clear
55.2 °F
Feels Like 55.2 °F
N
0.0
Wind Variable Wind from NW
Gusts 0.0 mph
Sunrise 6:34 AM
Sunset 8:20 PM
Moon Waning Crescent

Tomorrow is forecast to be Warmer than today.

Pressure 29.80 in
Visibility 10.0 miles
Clouds Clear
Dew Point 31 °F
Humidity 39%
Rainfall 0.56 in
Snow Depth Not available.
UV 0 out of 16
Pollen 8.90 out of 12
Air Quality Not available.
Flu Activity Sporadic
METAR KOFK 250256Z AUTO 00000KT 10SM CLR 13/M01 A2980 RMK AO2 SLP090 T01331011 53020

More Conditions Fewer Conditions

Pressure 29.80 in
Visibility 10.0 miles
Clouds Clear
Dew Point 31 °F
Humidity 39%
Rainfall 0.56 in
Snow Depth Not available.
UV 0 out of 16
Pollen 8.90 out of 12
Air Quality Not available.
Flu Activity Sporadic
METAR KOFK 250256Z AUTO 00000KT 10SM CLR 13/M01 A2980 RMK AO2 SLP090 T01331011 53020

More Conditions Fewer Conditions

10-Day Weather Forecast

Almanac

Astronomy

Apr. 24, 2014 Rise Set
Actual Time 6:34 AM CDT 8:20 PM CDT
Civil Twilight 6:04 AM CDT 8:50 PM CDT
Nautical Twilight 5:28 AM CDT 9:27 PM CDT
Astronomical Twilight 4:49 AM CDT 10:06 PM CDT
Moon 3:52 AM CDT (4/24) 3:32 PM CDT (4/24)
Length of Visible Light 14h 45m
Length of Day
13h 46m
Tomorrow will be 2m 34s longer.
Waning Crescent, 20% of the Moon is Illuminated
Today
Waning Crescent
Apr 29
New
May 6
First Quarter
May 14
Full
May 21
Last Quarter

Today's Extremes

State Highs State Lows

Community

  • Critter
    Critter
  • Jone Runs Falls
    Jone Runs Falls
  • Easter in Shenandoah National Park
    Easter in Shenandoah National Park
  • Sunset at Apalachicola Bay, Florida
    Sunset at Apalachicola Bay, Florida
  • Clouds mov'n in
    Clouds mov'n in

WunderPhotos

Upload Photos

1,704,827 photos uploaded!

WunderBlogs® & News

Nearby

Snow Depth

Station Depth Elevation
No new snow has been reported.

Coastal Water Temperatures

Place Temperature
No Stations Reporting

Earthquake Activity

City Distance Mag. Time & Date
No recent earthquake activity has been reported nearby.
Minimum magnitude displayed is 2.5.

Nearby Weather Stations

Station Location Temp. Windchill Dew Point Humidity Wind Precip. Elev Updated Type
Woodland Park, Norfolk, NE 55.2 °F - 31 °F 39% NW  at  0.0 mph 0.00 in / hr 1700 ft 10:20 PM CDT Normal
West Central - Norfolk, Norfolk, NE 55.2 °F - 29 °F 36% North  at  0.0 mph 0.00 in / hr 1640 ft 10:20 PM CDT Normal
1 mile South of Wayne, Wayne, NE 46.8 °F 47 °F 35 °F 64% SW  at  2.5 mph 0.00 in / hr 1463 ft 10:23 PM CDT Rapid Fire

Show More Stations Show Fewer Stations

What do you think?

We're not finished. Please let us know what you like, what you don't like, and what you are still missing.